createdAt,value
2023-04-17T00:01:20.162Z,101415.34
2023-04-17T00:03:48.268Z,101424.81
2023-04-17T00:06:16.764Z,101424.91
2023-04-17T00:08:47.759Z,101423.31
2023-04-17T00:11:18.051Z,101423.56
2023-04-17T00:13:47.990Z,101434.22
2023-04-17T00:16:16.643Z,101424.59
2023-04-17T00:18:44.942Z,101427.44
2023-04-17T00:21:12.826Z,101424.38
2023-04-17T00:23:41.398Z,101429.59
2023-04-17T00:26:09.405Z,101431.56
2023-04-17T00:28:37.562Z,101430.56
2023-04-17T00:31:26.067Z,101420.09
2023-04-17T00:33:56.202Z,101424.75
2023-04-17T00:36:27.543Z,101429.16
2023-04-17T00:38:56.083Z,101422.28
2023-04-17T00:41:24.956Z,101425.03
2023-04-17T00:43:53.088Z,101417.78
2023-04-17T00:46:23.184Z,101428.47
2023-04-17T00:48:51.332Z,101429.50
2023-04-17T00:51:19.255Z,101431.50
2023-04-17T00:53:48.000Z,101427.06
2023-04-17T00:56:16.290Z,101417.47
2023-04-17T00:58:44.518Z,101422.94
2023-04-17T01:01:13.074Z,101418.41
2023-04-17T01:03:42.041Z,101408.69
2023-04-17T01:06:10.501Z,101413.31
2023-04-17T01:08:42.623Z,101405.34
2023-04-17T01:11:12.124Z,101414.97
2023-04-17T01:13:50.657Z,101416.00
2023-04-17T01:16:20.324Z,101417.72
2023-04-17T01:18:51.625Z,101413.38
2023-04-17T01:21:19.642Z,101420.47
2023-04-17T01:23:52.404Z,101418.69
2023-04-17T01:26:31.762Z,101415.34
2023-04-17T01:29:03.147Z,101411.91
2023-04-17T01:31:31.958Z,101414.59
2023-04-17T01:34:02.804Z,101407.44
2023-04-17T01:36:32.083Z,101410.13
2023-04-17T01:39:00.011Z,101403.00
2023-04-17T01:41:28.147Z,101415.53
2023-04-17T01:43:56.522Z,101398.66
2023-04-17T01:46:24.711Z,101409.47
2023-04-17T01:48:52.814Z,101414.88
2023-04-17T01:51:21.287Z,101417.47
2023-04-17T01:53:58.281Z,101420.19
2023-04-17T01:56:27.928Z,101407.84
2023-04-17T01:58:56.120Z,101405.53
2023-04-17T02:01:24.353Z,101417.75
2023-04-17T02:03:52.700Z,101419.75
2023-04-17T02:06:21.884Z,101414.53
2023-04-17T02:08:49.920Z,101412.91
2023-04-17T02:11:18.034Z,101421.91
2023-04-17T02:13:46.483Z,101417.50
2023-04-17T02:16:14.772Z,101411.28
2023-04-17T02:18:42.746Z,101424.97
2023-04-17T02:21:10.746Z,101415.19
2023-04-17T02:23:38.708Z,101408.22
2023-04-17T02:26:06.814Z,101410.97
2023-04-17T02:28:41.006Z,101419.22
2023-04-17T02:31:09.659Z,101412.00
2023-04-17T02:33:38.002Z,101418.38
2023-04-17T02:36:06.781Z,101413.97
2023-04-17T02:38:35.006Z,101419.22
2023-04-17T02:41:03.224Z,101413.69
2023-04-17T02:43:31.934Z,101412.69
2023-04-17T02:46:00.222Z,101412.69
2023-04-17T02:48:28.648Z,101417.66
2023-04-17T02:50:56.494Z,101424.75
2023-04-17T02:53:24.624Z,101424.47
2023-04-17T02:55:52.719Z,101412.50
2023-04-17T02:58:21.390Z,101413.00
2023-04-17T03:00:49.500Z,101418.88
2023-04-17T03:03:17.689Z,101422.56
2023-04-17T03:05:45.641Z,101412.41
2023-04-17T03:08:14.071Z,101414.59
2023-04-17T03:10:42.910Z,101426.53
2023-04-17T03:13:13.716Z,101422.13
2023-04-17T03:15:41.949Z,101417.69
2023-04-17T03:18:10.319Z,101412.63
2023-04-17T03:20:39.288Z,101413.00
2023-04-17T03:23:07.713Z,101420.59
2023-04-17T03:25:35.799Z,101409.91
2023-04-17T03:28:04.244Z,101420.00
2023-04-17T03:30:33.352Z,101410.94
2023-04-17T03:33:01.621Z,101395.19
2023-04-17T03:35:29.852Z,101394.78
2023-04-17T03:37:58.446Z,101412.38
2023-04-17T03:40:26.714Z,101398.03
2023-04-17T03:42:54.914Z,101396.22
2023-04-17T03:45:23.410Z,101392.06
2023-04-17T03:47:51.479Z,101396.94
2023-04-17T03:50:19.466Z,101392.16
2023-04-17T03:52:47.460Z,101400.41
2023-04-17T03:55:17.272Z,101389.59
2023-04-17T03:57:45.481Z,101399.94
2023-04-17T04:00:14.430Z,101395.72
2023-04-17T04:02:42.702Z,101394.72
2023-04-17T04:05:12.232Z,101394.00
2023-04-17T04:07:40.244Z,101395.41
2023-04-17T04:10:08.850Z,101403.69
2023-04-17T04:12:37.086Z,101410.06
2023-04-17T04:15:11.006Z,101406.59
2023-04-17T04:17:41.997Z,101418.75
2023-04-17T04:20:10.361Z,101413.75
2023-04-17T04:22:38.418Z,101402.78
2023-04-17T04:25:07.093Z,101405.00
2023-04-17T04:27:35.356Z,101397.72
2023-04-17T04:30:04.905Z,101394.97
2023-04-17T04:32:37.852Z,101397.06
2023-04-17T04:35:07.037Z,101389.50
2023-04-17T04:37:36.255Z,101400.28
2023-04-17T04:40:25.176Z,101395.56
2023-04-17T04:42:53.151Z,101402.59
2023-04-17T04:45:21.276Z,101389.91
2023-04-17T04:47:51.505Z,101392.59
2023-04-17T04:50:21.707Z,101391.53
2023-04-17T04:52:49.605Z,101384.59
2023-04-17T04:55:17.770Z,101382.78
2023-04-17T04:57:45.978Z,101390.38
2023-04-17T05:00:15.078Z,101383.44
2023-04-17T05:02:43.874Z,101389.06
2023-04-17T05:05:12.897Z,101391.59
2023-04-17T05:07:41.288Z,101405.22
2023-04-17T05:10:10.103Z,101391.53
2023-04-17T05:12:38.178Z,101381.22
2023-04-17T05:15:07.226Z,101390.06
2023-04-17T05:17:36.864Z,101382.25
2023-04-17T05:20:09.569Z,101386.72
2023-04-17T05:22:37.950Z,101392.41
2023-04-17T05:25:06.240Z,101384.16
2023-04-17T05:27:34.690Z,101388.09
2023-04-17T05:30:02.756Z,101385.44
2023-04-17T05:32:31.948Z,101391.16
2023-04-17T05:34:59.962Z,101388.78
2023-04-17T05:37:28.128Z,101386.28
2023-04-17T05:39:56.291Z,101394.81
2023-04-17T05:42:25.141Z,101397.09
2023-04-17T05:44:53.583Z,101397.63
2023-04-17T05:47:21.996Z,101394.91
2023-04-17T05:49:51.920Z,101389.72
2023-04-17T05:52:20.026Z,101401.59
2023-04-17T05:54:48.151Z,101394.28
2023-04-17T05:57:16.368Z,101395.72
2023-04-17T05:59:46.592Z,101396.25
2023-04-17T06:02:17.728Z,101390.50
2023-04-17T06:04:47.437Z,101389.50
2023-04-17T06:07:15.819Z,101390.34
2023-04-17T06:09:43.748Z,101384.81
2023-04-17T06:12:16.553Z,101384.28
2023-04-17T06:14:49.171Z,101410.59
2023-04-17T06:17:17.754Z,101393.00
2023-04-17T06:19:46.568Z,101393.28
2023-04-17T06:22:15.888Z,101393.25
2023-04-17T06:24:45.298Z,101388.31
2023-04-17T06:27:13.454Z,101397.38
2023-04-17T06:29:41.778Z,101397.63
2023-04-17T06:32:12.815Z,101400.47
2023-04-17T06:34:58.213Z,101397.41
2023-04-17T06:37:27.422Z,101399.47
2023-04-17T06:39:55.708Z,101399.41
2023-04-17T06:42:26.690Z,101402.59
2023-04-17T06:44:56.394Z,101399.28
2023-04-17T06:47:24.566Z,101413.00
2023-04-17T06:49:52.726Z,101398.50
2023-04-17T06:52:22.614Z,101397.19
2023-04-17T06:54:56.371Z,101389.06
2023-04-17T06:57:24.382Z,101397.41
2023-04-17T06:59:52.340Z,101383.31
2023-04-17T07:02:20.429Z,101399.91
2023-04-17T07:04:49.551Z,101385.34
2023-04-17T07:07:17.757Z,101401.38
2023-04-17T07:09:48.302Z,101393.19
2023-04-17T07:12:16.523Z,101388.88
2023-04-17T07:14:45.300Z,101370.66
2023-04-17T07:17:14.836Z,101382.44
2023-04-17T07:19:42.901Z,101401.94
2023-04-17T07:22:10.997Z,101378.75
2023-04-17T07:24:44.089Z,101377.34
2023-04-17T07:27:12.116Z,101360.81
2023-04-17T07:29:40.197Z,101361.13
2023-04-17T07:32:08.199Z,101347.88
2023-04-17T07:34:41.539Z,101364.69
2023-04-17T07:37:09.969Z,101351.28
2023-04-17T07:39:38.271Z,101349.13
2023-04-17T07:42:09.407Z,101367.06
2023-04-17T07:44:40.949Z,101343.81
2023-04-17T07:47:09.403Z,101331.19
2023-04-17T07:49:40.145Z,101347.13
2023-04-17T07:52:08.367Z,101337.19
2023-04-17T07:54:36.587Z,101331.59
2023-04-17T07:57:11.435Z,101314.06
2023-04-17T07:59:39.993Z,101350.81
2023-04-17T08:02:08.900Z,101308.13
2023-04-17T08:04:38.154Z,101306.44
2023-04-17T08:07:07.741Z,101303.06
2023-04-17T08:09:36.012Z,101296.50
2023-04-17T08:12:04.221Z,101302.25
2023-04-17T08:14:33.237Z,101304.00
2023-04-17T08:17:02.333Z,101294.41
2023-04-17T08:19:33.036Z,101301.09
2023-04-17T08:22:06.766Z,101276.56
2023-04-17T08:24:34.872Z,101300.19
2023-04-17T08:27:06.542Z,101281.34
2023-04-17T08:29:40.545Z,101272.28
2023-04-17T08:32:14.542Z,101285.75
2023-04-17T08:34:45.195Z,101272.59
2023-04-17T08:37:13.204Z,101268.13
2023-04-17T08:39:41.793Z,101283.38
2023-04-17T08:42:18.563Z,101272.06
2023-04-17T08:44:50.203Z,101257.13
2023-04-17T08:47:18.382Z,101264.22
2023-04-17T08:49:47.688Z,101248.97
2023-04-17T08:52:15.959Z,101235.66
2023-04-17T08:54:44.182Z,101229.69
2023-04-17T08:57:12.716Z,101236.19
2023-04-17T08:59:42.772Z,101240.78
2023-04-17T09:02:11.388Z,101225.06
2023-04-17T09:04:45.100Z,101224.44
2023-04-17T09:07:15.835Z,101225.16
2023-04-17T09:09:59.919Z,101247.91
2023-04-17T09:12:29.216Z,101245.94
2023-04-17T09:15:01.454Z,101204.91
2023-04-17T09:17:35.234Z,101217.06
2023-04-17T09:20:07.928Z,101209.41
2023-04-17T09:22:37.657Z,101218.38
2023-04-17T09:25:09.606Z,101225.81
2023-04-17T09:27:37.660Z,101201.50
2023-04-17T09:30:07.269Z,101187.28
2023-04-17T09:32:37.853Z,101187.06
2023-04-17T09:35:06.464Z,101164.34
2023-04-17T09:37:49.898Z,101180.25
2023-04-17T09:40:20.044Z,101164.38
2023-04-17T09:43:01.742Z,101180.66
2023-04-17T09:45:42.848Z,101164.03
2023-04-17T09:48:13.121Z,101172.50
2023-04-17T09:50:41.499Z,101177.25
2023-04-17T09:53:09.879Z,101176.84
2023-04-17T09:55:39.136Z,101168.47
2023-04-17T09:58:08.569Z,101163.88
2023-04-17T10:00:38.230Z,101147.13
2023-04-17T10:03:08.123Z,101180.41
2023-04-17T10:05:37.163Z,101157.44
2023-04-17T10:08:06.637Z,101141.16
2023-04-17T10:10:36.862Z,101126.63
2023-04-17T10:13:07.985Z,101151.19
2023-04-17T10:15:36.359Z,101145.88
2023-04-17T10:18:26.086Z,101144.69
2023-04-17T10:20:55.808Z,101156.53
2023-04-17T10:23:32.906Z,101141.97
2023-04-17T10:26:25.509Z,101159.97
2023-04-17T10:28:54.499Z,101151.81
2023-04-17T10:32:01.258Z,101155.41
2023-04-17T10:34:41.008Z,101134.25
2023-04-17T10:37:15.861Z,101144.41
2023-04-17T10:39:53.777Z,101134.13
2023-04-17T10:42:22.746Z,101144.56
2023-04-17T10:44:57.511Z,101133.25
2023-04-17T10:47:35.092Z,101166.72
2023-04-17T10:50:06.128Z,101124.91
2023-04-17T10:52:55.024Z,101114.19
2023-04-17T10:55:27.869Z,101119.31
2023-04-17T10:58:01.345Z,101112.84
2023-04-17T11:00:50.120Z,101115.06
2023-04-17T11:03:18.586Z,101140.38
2023-04-17T11:05:48.627Z,101118.78
2023-04-17T11:08:17.300Z,101104.31
2023-04-17T11:10:46.259Z,101120.91
2023-04-17T11:13:16.373Z,101104.75
2023-04-17T11:15:44.502Z,101110.66
2023-04-17T11:18:13.303Z,101145.69
2023-04-17T11:20:41.609Z,101101.59
2023-04-17T11:23:10.080Z,101110.78
2023-04-17T11:25:43.849Z,101099.28
2023-04-17T11:28:12.505Z,101091.38
2023-04-17T11:30:45.364Z,101094.13
2023-04-17T11:33:13.728Z,101079.97
2023-04-17T11:35:43.160Z,101108.94
2023-04-17T11:38:23.788Z,101091.19
2023-04-17T11:40:54.488Z,101096.38
2023-04-17T11:43:24.283Z,101081.28
2023-04-17T11:45:57.372Z,101110.25
2023-04-17T11:48:30.044Z,101084.09
2023-04-17T11:51:01.591Z,101093.22
2023-04-17T11:53:30.308Z,101078.38
2023-04-17T11:56:18.605Z,101086.09
2023-04-17T11:58:53.570Z,101073.91
2023-04-17T12:01:26.376Z,101068.59
2023-04-17T12:03:58.121Z,101065.72
2023-04-17T12:06:37.286Z,101088.13
2023-04-17T12:09:07.398Z,101081.66
2023-04-17T12:11:36.600Z,101083.53
2023-04-17T12:14:05.951Z,101068.16
2023-04-17T12:16:37.889Z,101059.53
2023-04-17T12:19:06.386Z,101082.16
2023-04-17T12:21:35.038Z,101064.41
2023-04-17T12:24:03.214Z,101056.66
2023-04-17T12:26:34.999Z,101042.66
2023-04-17T12:29:05.175Z,101041.69
2023-04-17T12:31:33.394Z,101026.53
2023-04-17T12:34:05.841Z,101025.91
2023-04-17T12:36:34.497Z,101023.75
2023-04-17T12:39:02.392Z,101045.09
2023-04-17T12:41:30.935Z,101025.34
2023-04-17T12:44:02.011Z,101022.81
2023-04-17T12:46:31.027Z,101016.59
2023-04-17T12:49:04.151Z,101017.88
2023-04-17T12:51:38.235Z,101019.53
2023-04-17T12:54:06.394Z,101017.53
2023-04-17T12:56:35.090Z,101051.88
2023-04-17T12:59:03.338Z,101030.00
2023-04-17T13:01:31.828Z,101022.06
2023-04-17T13:04:00.282Z,101008.50
2023-04-17T13:06:28.507Z,101007.38
2023-04-17T13:08:56.568Z,101001.25
2023-04-17T13:11:29.502Z,101015.13
2023-04-17T13:13:58.400Z,101007.31
2023-04-17T13:16:27.437Z,101016.66
2023-04-17T13:18:55.943Z,101010.59
2023-04-17T13:21:23.863Z,100995.09
2023-04-17T13:23:52.053Z,101024.69
2023-04-17T13:26:21.029Z,101006.53
2023-04-17T13:28:51.873Z,101006.22
2023-04-17T13:31:22.299Z,101021.66
2023-04-17T13:33:50.908Z,101007.06
2023-04-17T13:36:18.892Z,101008.78
2023-04-17T13:38:48.545Z,101008.88
2023-04-17T13:41:18.552Z,101009.84
2023-04-17T13:43:46.763Z,101020.59
2023-04-17T13:46:16.682Z,101019.72
2023-04-17T13:48:45.147Z,101017.00
2023-04-17T13:51:14.381Z,101025.31
2023-04-17T13:53:42.610Z,101018.28
2023-04-17T13:56:10.888Z,101021.72
2023-04-17T13:58:40.696Z,101031.72
2023-04-17T14:01:12.888Z,101026.28
2023-04-17T14:03:43.059Z,101027.72
2023-04-17T14:06:13.387Z,101027.50
2023-04-17T14:08:44.078Z,101029.81
2023-04-17T14:11:15.788Z,101028.19
2023-04-17T14:13:43.843Z,101023.72
2023-04-17T14:16:11.902Z,101024.34
2023-04-17T14:18:39.946Z,101008.09
2023-04-17T14:21:08.505Z,101026.25
2023-04-17T14:23:36.825Z,101019.28
2023-04-17T14:26:07.303Z,101022.75
2023-04-17T14:28:38.402Z,101017.91
2023-04-17T14:31:09.729Z,101017.47
2023-04-17T14:33:38.418Z,101020.03
2023-04-17T14:36:07.729Z,101019.63
2023-04-17T14:38:42.178Z,101014.06
2023-04-17T14:41:10.441Z,101013.97
2023-04-17T14:43:38.502Z,101011.09
2023-04-17T14:46:06.516Z,101015.53
2023-04-17T14:48:48.103Z,101019.44
2023-04-17T14:51:27.405Z,101027.47
2023-04-17T14:53:55.732Z,101020.34
2023-04-17T14:56:24.012Z,101014.78
2023-04-17T14:58:52.193Z,101024.22
2023-04-17T15:01:20.596Z,101018.66
2023-04-17T15:03:49.145Z,101020.38
2023-04-17T15:06:23.948Z,101006.66
2023-04-17T15:08:52.738Z,101012.78
2023-04-17T15:11:21.417Z,101004.78
2023-04-17T15:13:49.636Z,101014.84
2023-04-17T15:16:18.295Z,101013.41
2023-04-17T15:18:46.619Z,101008.84
2023-04-17T15:21:16.670Z,101014.44
2023-04-17T15:23:44.677Z,101015.59
2023-04-17T15:26:14.293Z,101018.88
2023-04-17T15:28:42.762Z,101012.16
2023-04-17T15:31:13.138Z,101015.28
2023-04-17T15:33:41.415Z,101016.84
2023-04-17T15:36:09.449Z,101017.16
2023-04-17T15:38:40.237Z,101022.28
2023-04-17T15:41:10.155Z,101029.56
2023-04-17T15:43:39.857Z,101024.41
2023-04-17T15:46:08.188Z,101026.09
2023-04-17T15:48:36.397Z,101021.22
2023-04-17T15:51:05.985Z,101022.06
2023-04-17T15:53:34.446Z,101031.38
2023-04-17T15:56:03.234Z,101032.91
2023-04-17T15:58:31.869Z,101022.50
2023-04-17T16:01:00.131Z,101036.06
2023-04-17T16:03:28.779Z,101034.63
2023-04-17T16:06:00.539Z,101046.47
2023-04-17T16:08:29.062Z,101041.16
2023-04-17T16:10:57.717Z,101047.84
2023-04-17T16:13:27.024Z,101039.28
2023-04-17T16:15:55.691Z,101044.41
2023-04-17T16:18:24.194Z,101041.81
2023-04-17T16:20:52.155Z,101053.22
2023-04-17T16:23:21.211Z,101051.91
2023-04-17T16:25:51.463Z,101055.00
2023-04-17T16:28:19.585Z,101056.63
2023-04-17T16:30:49.853Z,101056.59
2023-04-17T16:33:18.088Z,101056.94
2023-04-17T16:35:46.457Z,101068.59
2023-04-17T16:38:14.492Z,101057.56
2023-04-17T16:40:42.636Z,101069.63
2023-04-17T16:43:11.153Z,101067.78
2023-04-17T16:45:40.813Z,101067.38
2023-04-17T16:48:11.879Z,101070.22
2023-04-17T16:50:42.734Z,101073.41
2023-04-17T16:53:11.337Z,101082.41
2023-04-17T16:55:39.535Z,101087.91
2023-04-17T16:58:09.708Z,101088.66
2023-04-17T17:00:38.207Z,101085.34
2023-04-17T17:03:06.358Z,101092.16
2023-04-17T17:05:35.254Z,101098.94
2023-04-17T17:08:11.130Z,101099.63
2023-04-17T17:10:41.896Z,101102.38
2023-04-17T17:13:13.518Z,101102.41
2023-04-17T17:15:45.463Z,101108.59
2023-04-17T17:18:13.492Z,101110.06
2023-04-17T17:20:44.559Z,101109.13
2023-04-17T17:23:12.486Z,101113.19
2023-04-17T17:25:40.780Z,101119.56
2023-04-17T17:28:09.530Z,101124.47
2023-04-17T17:30:38.491Z,101117.59
2023-04-17T17:33:06.694Z,101128.31
2023-04-17T17:35:34.959Z,101126.22
2023-04-17T17:38:03.794Z,101119.59
2023-04-17T17:40:37.261Z,101122.53
2023-04-17T17:43:05.416Z,101124.50
2023-04-17T17:45:37.437Z,101127.94
2023-04-17T17:48:06.849Z,101125.13
2023-04-17T17:50:37.708Z,101128.78
2023-04-17T17:53:05.905Z,101134.09
2023-04-17T17:55:38.224Z,101134.34
2023-04-17T17:58:07.731Z,101139.63
2023-04-17T18:00:36.888Z,101140.25
2023-04-17T18:03:06.137Z,101140.84
2023-04-17T18:05:34.878Z,101134.00
2023-04-17T18:08:02.870Z,101129.66
2023-04-17T18:10:31.143Z,101136.91
2023-04-17T18:13:00.223Z,101132.88
2023-04-17T18:15:28.635Z,101129.53
2023-04-17T18:17:56.916Z,101142.44
2023-04-17T18:20:24.938Z,101133.97
2023-04-17T18:22:53.096Z,101138.38
2023-04-17T18:25:21.508Z,101131.03
2023-04-17T18:27:52.139Z,101139.00
2023-04-17T18:30:20.087Z,101134.72
2023-04-17T18:32:48.169Z,101127.94
2023-04-17T18:35:16.369Z,101129.78
2023-04-17T18:37:45.762Z,101128.22
2023-04-17T18:40:14.255Z,101125.00
2023-04-17T18:42:42.452Z,101125.97
2023-04-17T18:45:13.919Z,101123.41
2023-04-17T18:47:42.705Z,101121.69
2023-04-17T18:50:12.338Z,101119.72
2023-04-17T18:52:44.041Z,101118.25
2023-04-17T18:55:14.950Z,101116.88
2023-04-17T18:57:43.474Z,101117.00
2023-04-17T19:00:15.239Z,101119.47
2023-04-17T19:02:46.933Z,101123.91
2023-04-17T19:05:17.041Z,101120.34
2023-04-17T19:07:48.950Z,101113.47
2023-04-17T19:10:16.930Z,101111.72
2023-04-17T19:12:48.490Z,101106.56
2023-04-17T19:15:18.058Z,101106.94
2023-04-17T19:17:46.291Z,101115.16
2023-04-17T19:20:17.968Z,101113.06
2023-04-17T19:22:46.273Z,101104.63
2023-04-17T19:25:14.323Z,101104.97
2023-04-17T19:27:42.502Z,101108.53
2023-04-17T19:30:11.379Z,101100.91
2023-04-17T19:32:39.750Z,101092.78
2023-04-17T19:35:08.598Z,101101.91
2023-04-17T19:37:37.098Z,101102.03
2023-04-17T19:40:14.122Z,101104.09
2023-04-17T19:42:49.907Z,101102.50
2023-04-17T19:45:21.505Z,101102.88
2023-04-17T19:47:57.715Z,101104.47
2023-04-17T19:50:32.113Z,101105.34
2023-04-17T19:53:01.136Z,101106.06
2023-04-17T19:55:30.025Z,101096.38
2023-04-17T19:57:59.219Z,101104.34
2023-04-17T20:00:27.475Z,101091.06
2023-04-17T20:02:58.621Z,101100.28
2023-04-17T20:05:29.765Z,101093.28
2023-04-17T20:07:57.821Z,101091.81
2023-04-17T20:10:29.902Z,101095.50
2023-04-17T20:13:00.752Z,101093.66
2023-04-17T20:15:32.455Z,101098.19
2023-04-17T20:18:00.860Z,101094.38
2023-04-17T20:20:29.521Z,101099.91
2023-04-17T20:23:00.608Z,101091.53
2023-04-17T20:25:28.929Z,101084.66
2023-04-17T20:28:01.939Z,101084.03
2023-04-17T20:30:31.076Z,101083.03
2023-04-17T20:33:00.756Z,101087.97
2023-04-17T20:35:28.890Z,101078.22
2023-04-17T20:37:57.633Z,101083.38
2023-04-17T20:40:25.953Z,101079.19
2023-04-17T20:42:54.437Z,101068.97
2023-04-17T20:45:22.993Z,101078.63
2023-04-17T20:50:22.464Z,101073.91
2023-04-17T20:52:51.680Z,101076.97
2023-04-17T20:55:20.460Z,101078.19
2023-04-17T20:57:49.227Z,101079.03
2023-04-17T21:00:23.425Z,101080.03
2023-04-17T21:02:56.548Z,101087.47
2023-04-17T21:05:25.475Z,101080.25
2023-04-17T21:07:54.801Z,101074.25
2023-04-17T21:10:22.949Z,101074.97
2023-04-17T21:12:51.288Z,101068.94
2023-04-17T21:15:21.830Z,101067.59
2023-04-17T21:17:50.366Z,101069.78
2023-04-17T21:20:18.683Z,101062.75
2023-04-17T21:22:46.778Z,101073.03
2023-04-17T21:25:14.996Z,101064.31
2023-04-17T21:27:44.575Z,101061.84
2023-04-17T21:30:13.550Z,101064.16
2023-04-17T21:32:42.954Z,101065.09
2023-04-17T21:35:12.011Z,101065.22
2023-04-17T21:37:41.039Z,101069.34
2023-04-17T21:40:10.091Z,101061.38
2023-04-17T21:42:38.217Z,101071.53
2023-04-17T21:45:07.060Z,101061.84
2023-04-17T21:47:35.973Z,101068.19
2023-04-17T21:50:04.144Z,101054.06
2023-04-17T21:52:32.312Z,101057.34
2023-04-17T21:55:05.343Z,101060.69
2023-04-17T21:57:33.672Z,101055.16
2023-04-17T22:00:03.036Z,101061.28
2023-04-17T22:02:34.134Z,101054.81
2023-04-17T22:05:02.638Z,101048.34
2023-04-17T22:07:34.122Z,101048.56
2023-04-17T22:10:06.965Z,101053.97
2023-04-17T22:12:35.126Z,101052.81
2023-04-17T22:15:03.313Z,101043.09
2023-04-17T22:18:00.703Z,101049.34
2023-04-17T22:20:29.012Z,101043.09
2023-04-17T22:22:57.198Z,101029.75
2023-04-17T22:25:25.372Z,101033.81
2023-04-17T22:27:53.850Z,101031.34
2023-04-17T22:30:26.933Z,101030.59
2023-04-17T22:32:57.754Z,101037.50
2023-04-17T22:35:25.947Z,101028.09
2023-04-17T22:37:54.101Z,101029.06
2023-04-17T22:40:22.077Z,101017.63
2023-04-17T22:42:50.987Z,101024.22
2023-04-17T22:45:22.084Z,101019.69
2023-04-17T22:47:50.559Z,101019.81
2023-04-17T22:50:19.487Z,101029.84
2023-04-17T22:52:49.289Z,101018.44
2023-04-17T22:55:22.504Z,101014.78
2023-04-17T22:57:50.557Z,101022.09
2023-04-17T23:00:22.726Z,101012.94
2023-04-17T23:02:50.995Z,101008.63
2023-04-17T23:05:19.183Z,101014.91
2023-04-17T23:07:47.634Z,101009.22
2023-04-17T23:10:19.515Z,101016.75
2023-04-17T23:12:47.677Z,101005.63
2023-04-17T23:15:15.901Z,101020.00
2023-04-17T23:17:46.734Z,101006.59
2023-04-17T23:20:15.119Z,101016.41
2023-04-17T23:22:43.573Z,101001.34
2023-04-17T23:25:11.689Z,101014.03
2023-04-17T23:27:46.800Z,101009.75
2023-04-17T23:30:15.198Z,101005.75
2023-04-17T23:32:43.741Z,101012.13
2023-04-17T23:35:11.883Z,101003.91
2023-04-17T23:37:40.271Z,100996.03
2023-04-17T23:40:09.607Z,100997.16
2023-04-17T23:42:37.999Z,101000.81
2023-04-17T23:45:06.637Z,100996.84
2023-04-17T23:47:35.273Z,101002.34
2023-04-17T23:50:05.662Z,101002.53
2023-04-17T23:52:34.061Z,101003.38
2023-04-17T23:55:03.319Z,100999.84
2023-04-17T23:57:46.842Z,101008.00
